Time;durP1;ratioP1;P1;durP2;ratioP2;P2;SDS_P1;SDS_P2;PMS_P1;PMS_P2;Temp;Humidity;BMP_temperature;BMP_pressure;BME280_temperature;BME280_humidity;BME280_pressure;Samples;Min_cycle;Max_cycle;Signal;HPM_P1;HPM_P2
2021/08/10 00:00:14;;;;;;;9.95;5.53;;;;;;;17.01;75.95;101538.41;1782444;79;21505;-83
2021/08/10 00:02:42;;;;;;;7.97;5.62;;;;;;;17.03;75.88;101530.88;1806827;79;21125;-82
2021/08/10 00:05:12;;;;;;;6.85;6.03;;;;;;;17.07;75.81;101523.39;1805798;79;21583;-83
2021/08/10 00:07:41;;;;;;;7.50;5.37;;;;;;;17.13;75.76;101526.55;1806457;79;21789;-83
2021/08/10 00:10:08;;;;;;;9.68;6.22;;;;;;;17.19;75.68;101530.62;1805812;79;21079;-84
2021/08/10 00:12:34;;;;;;;8.93;6.05;;;;;;;17.23;75.63;101531.11;1808039;79;21496;-83
2021/08/10 00:15:03;;;;;;;7.20;5.83;;;;;;;17.26;75.53;101529.78;1806564;79;21047;-83
2021/08/10 00:17:34;;;;;;;7.12;5.50;;;;;;;17.32;75.47;101529.40;1807497;79;20987;-83
2021/08/10 00:20:03;;;;;;;9.38;5.55;;;;;;;17.36;75.37;101524.14;1805650;79;22489;-83
2021/08/10 00:22:29;;;;;;;11.15;5.28;;;;;;;17.36;75.20;101514.83;1805628;79;21043;-82
2021/08/10 00:24:58;;;;;;;7.58;5.37;;;;;;;17.39;75.08;101518.83;1795274;78;20975;-81
2021/08/10 00:27:24;;;;;;;6.97;4.97;;;;;;;17.40;75.05;101515.30;1806122;79;21071;-82
2021/08/10 00:29:53;;;;;;;7.62;5.40;;;;;;;17.39;74.93;101514.83;1804901;79;21066;-83
2021/08/10 00:32:29;;;;;;;8.53;5.25;;;;;;;17.37;74.87;101515.26;1806178;79;21846;-83
2021/08/10 00:34:53;;;;;;;9.00;5.62;;;;;;;17.37;74.84;101522.36;1803434;79;21046;-82
2021/08/10 00:37:19;;;;;;;8.13;5.80;;;;;;;17.33;74.85;101524.09;1807260;79;21098;-83
2021/08/10 00:39:49;;;;;;;8.18;6.00;;;;;;;17.28;74.89;101523.16;1801932;78;21596;-82
2021/08/10 00:42:18;;;;;;;7.62;6.08;;;;;;;17.26;74.97;101523.12;1806115;79;21465;-82
2021/08/10 00:44:50;;;;;;;9.23;6.20;;;;;;;17.21;75.02;101524.87;1777106;78;22499;-83
2021/08/10 00:47:17;;;;;;;7.70;6.45;;;;;;;17.20;75.12;101516.43;1808181;78;21153;-83
2021/08/10 00:49:43;;;;;;;7.70;6.10;;;;;;;17.19;75.14;101521.73;1807782;79;21066;-82
2021/08/10 00:52:13;;;;;;;7.35;6.22;;;;;;;17.15;75.11;101515.48;1806119;79;21057;-85
2021/08/10 00:54:40;;;;;;;13.15;6.17;;;;;;;17.10;75.06;101515.90;1806734;79;21576;-82
2021/08/10 00:57:11;;;;;;;9.48;6.90;;;;;;;17.01;75.05;101512.69;1803963;79;21720;-83
2021/08/10 00:59:42;;;;;;;10.40;6.65;;;;;;;16.96;75.09;101516.17;1803316;79;21120;-82
2021/08/10 01:02:11;;;;;;;9.65;6.50;;;;;;;16.86;75.04;101512.08;1806716;78;21634;-82
2021/08/10 01:04:38;;;;;;;10.40;6.50;;;;;;;16.74;75.06;101518.54;1806402;79;21230;-82
2021/08/10 01:07:13;;;;;;;7.15;6.45;;;;;;;16.64;75.19;101516.21;1805623;79;21126;-82
2021/08/10 01:10:20;;;;;;;9.20;5.85;;;;;;;16.55;75.28;101511.23;1793377;79;21869;-82
2021/08/10 01:13:05;;;;;;;14.15;6.65;;;;;;;16.48;75.39;101515.14;1807365;79;21638;-82
2021/08/10 01:15:37;;;;;;;7.97;6.62;;;;;;;16.40;75.41;101511.92;1805605;79;21145;-82
2021/08/10 01:18:13;;;;;;;6.75;6.00;;;;;;;16.31;75.44;101517.58;1806436;79;21094;-82
2021/08/10 01:21:17;;;;;;;12.58;6.42;;;;;;;16.24;75.48;101516.15;1806457;79;21061;-81
2021/08/10 01:23:46;;;;;;;10.45;6.22;;;;;;;16.17;75.58;101514.27;1806445;79;21829;-82
2021/08/10 01:26:32;;;;;;;8.73;6.28;;;;;;;16.07;75.64;101519.45;1805143;79;21019;-83
2021/08/10 01:29:23;;;;;;;8.05;6.40;;;;;;;16.00;75.70;101514.91;1741125;79;20987;-82
2021/08/10 01:31:49;;;;;;;11.80;6.80;;;;;;;15.92;75.76;101512.14;1800752;79;21055;-83
2021/08/10 01:34:39;;;;;;;8.50;6.22;;;;;;;15.85;75.82;101510.25;1801189;79;21003;-83
2021/08/10 01:37:09;;;;;;;9.18;7.40;;;;;;;15.80;75.90;101505.74;1805645;79;22164;-83
2021/08/10 01:39:39;;;;;;;9.30;7.67;;;;;;;15.73;75.96;101506.98;1804291;78;21079;-82
2021/08/10 01:42:08;;;;;;;9.48;7.58;;;;;;;15.70;76.06;101505.56;1804744;79;21149;-82
2021/08/10 01:44:37;;;;;;;10.53;7.37;;;;;;;15.64;76.12;101504.14;1776939;78;21596;-82
2021/08/10 01:47:07;;;;;;;10.15;7.28;;;;;;;15.59;76.23;101503.17;1805934;78;21031;-82
2021/08/10 01:49:35;;;;;;;8.80;7.05;;;;;;;15.56;76.33;101496.51;1728121;82;21118;-83
2021/08/10 01:52:03;;;;;;;8.33;7.15;;;;;;;15.53;76.40;101497.77;1728948;82;21039;-82
2021/08/10 01:54:29;;;;;;;9.30;7.03;;;;;;;15.49;76.43;101503.45;1729046;82;21083;-83
2021/08/10 01:56:56;;;;;;;10.25;6.30;;;;;;;15.46;76.43;101495.88;1724861;82;21162;-81
2021/08/10 01:59:28;;;;;;;11.00;6.55;;;;;;;15.41;76.48;101499.80;1740718;82;21082;-83
2021/08/10 02:01:55;;;;;;;15.38;7.10;;;;;;;15.39;76.61;101500.61;1747218;80;22679;-83
2021/08/10 02:04:26;;;;;;;12.40;6.70;;;;;;;15.35;76.69;101502.31;1764637;80;21141;-82
2021/08/10 02:06:52;;;;;;;10.48;6.90;;;;;;;15.33;76.76;101506.70;1766896;80;22368;-83
2021/08/10 02:09:20;;;;;;;10.98;6.87;;;;;;;15.31;76.80;101512.42;1766421;80;21102;-83
2021/08/10 02:11:48;;;;;;;7.28;6.50;;;;;;;15.28;76.84;101510.62;1761918;80;21125;-82
2021/08/10 02:16:52;;;;;;;8.45;6.58;;;;;;;15.22;76.92;101518.88;1724017;81;21322;-83
2021/08/10 02:19:19;;;;;;;8.83;6.53;;;;;;;15.18;77.01;101519.70;1766540;80;21114;-83
2021/08/10 02:21:52;;;;;;;11.25;6.70;;;;;;;15.16;77.03;101524.97;1746095;80;21058;-82
2021/08/10 02:24:28;;;;;;;9.00;5.83;;;;;;;15.14;77.05;101522.28;1767486;81;21094;-82
2021/08/10 02:27:03;;;;;;;11.90;6.10;;;;;;;15.12;77.08;101523.12;1735650;82;22593;-82
2021/08/10 02:29:36;;;;;;;11.88;6.97;;;;;;;15.09;77.12;101521.33;1806366;78;21540;-82
2021/08/10 02:32:05;;;;;;;8.88;6.35;;;;;;;15.09;77.15;101527.03;1780052;78;21054;-82
2021/08/10 02:34:32;;;;;;;6.50;5.58;;;;;;;15.07;77.18;101523.06;1804247;79;21531;-82
2021/08/10 02:37:01;;;;;;;11.60;5.33;;;;;;;15.07;77.22;101520.41;1805595;79;21567;-82
2021/08/10 02:39:30;;;;;;;7.58;5.60;;;;;;;15.08;77.27;101515.98;1805223;79;21719;-82
2021/08/10 02:41:57;;;;;;;6.65;5.45;;;;;;;15.10;77.32;101520.44;1804687;79;21102;-82
2021/08/10 02:44:24;;;;;;;10.80;5.78;;;;;;;15.12;77.31;101520.48;1805211;79;21553;-82
2021/08/10 02:46:51;;;;;;;7.30;5.87;;;;;;;15.13;77.31;101521.84;1806724;79;21063;-82
2021/08/10 02:49:18;;;;;;;12.00;5.35;;;;;;;15.15;77.32;101514.80;1799253;79;21052;-82
2021/08/10 02:51:49;;;;;;;7.65;6.15;;;;;;;15.18;77.31;101525.00;1805151;79;21078;-83
2021/08/10 02:54:18;;;;;;;8.93;7.70;;;;;;;15.21;77.34;101517.11;1804858;79;21027;-83
2021/08/10 02:56:57;;;;;;;8.45;6.35;;;;;;;15.24;77.35;101519.80;1754382;79;21527;-82
2021/08/10 02:59:27;;;;;;;9.38;4.90;;;;;;;15.23;77.19;101518.91;1805097;79;21117;-82
2021/08/10 03:02:22;;;;;;;8.03;6.37;;;;;;;15.23;77.08;101517.59;1804103;79;21015;-82
2021/08/10 03:05:10;;;;;;;9.23;6.63;;;;;;;15.24;77.10;101514.50;1805695;78;21809;-83
2021/08/10 03:07:42;;;;;;;7.80;6.30;;;;;;;15.24;77.10;101514.50;1805106;79;20984;-83
2021/08/10 03:10:10;;;;;;;7.70;5.47;;;;;;;15.23;77.04;101517.59;1808178;79;22156;-83
2021/08/10 03:12:40;;;;;;;7.22;5.58;;;;;;;15.23;77.07;101518.91;1801419;78;21157;-82
2021/08/10 03:15:08;;;;;;;6.15;5.42;;;;;;;15.26;77.16;101516.73;1809644;78;21058;-82
2021/08/10 03:17:40;;;;;;;9.88;5.75;;;;;;;15.31;77.23;101515.07;1808754;79;22611;-83
2021/08/10 03:20:08;;;;;;;8.33;5.42;;;;;;;15.36;77.23;101523.57;1805510;79;21026;-83
2021/08/10 03:22:39;;;;;;;7.53;4.97;;;;;;;15.42;77.31;101522.78;1805499;79;21042;-83
2021/08/10 03:25:05;;;;;;;9.63;5.25;;;;;;;15.48;77.17;101533.49;1808154;79;21043;-83
2021/08/10 03:27:35;;;;;;;6.80;4.62;;;;;;;15.51;77.05;101523.39;1806444;79;21050;-83
2021/08/10 03:30:03;;;;;;;8.78;4.50;;;;;;;15.57;77.03;101514.64;1808948;79;22049;-83
2021/08/10 03:32:34;;;;;;;6.28;4.60;;;;;;;15.64;76.90;101524.05;1806125;79;21107;-83
2021/08/10 03:35:05;;;;;;;7.53;5.60;;;;;;;15.71;76.80;101523.70;1799851;78;21038;-82
2021/08/10 03:37:32;;;;;;;5.72;4.20;;;;;;;15.79;76.68;101522.11;1800458;79;21067;-82
2021/08/10 03:40:00;;;;;;;9.08;4.03;;;;;;;15.85;76.54;101516.89;1807313;79;21022;-83
2021/08/10 03:42:30;;;;;;;5.20;3.85;;;;;;;15.94;76.34;101518.37;1783812;79;21775;-83
2021/08/10 03:45:00;;;;;;;7.30;3.50;;;;;;;16.16;76.70;101524.42;1783122;79;21131;-83
2021/08/10 03:47:27;;;;;;;5.85;3.95;;;;;;;16.37;76.10;101527.39;1809126;79;21539;-82
2021/08/10 03:49:55;;;;;;;5.35;4.00;;;;;;;16.44;75.82;101530.59;1805846;79;21062;-83
2021/08/10 03:52:23;;;;;;;6.22;3.90;;;;;;;16.51;75.70;101520.92;1783296;79;21590;-82
2021/08/10 03:54:52;;;;;;;7.20;4.28;;;;;;;17.06;76.98;101520.70;1805095;79;21050;-83
2021/08/10 03:57:24;;;;;;;6.20;4.22;;;;;;;17.81;76.32;101513.84;1805414;79;21602;-82
2021/08/10 03:59:55;;;;;;;4.03;3.27;;;;;;;18.54;76.01;101520.52;1802320;78;21122;-82
2021/08/10 04:02:22;;;;;;;9.48;4.78;;;;;;;19.74;75.93;101522.16;1770014;79;21149;-83
2021/08/10 04:04:59;;;;;;;7.92;3.55;;;;;;;20.70;73.54;101527.77;1805051;78;21102;-82
2021/08/10 04:07:32;;;;;;;7.67;3.50;;;;;;;20.56;70.88;101515.73;1780646;78;21682;-82
2021/08/10 04:10:02;;;;;;;4.47;2.90;;;;;;;20.18;70.19;101507.86;1807203;78;21058;-84
2021/08/10 04:12:31;;;;;;;4.20;3.33;;;;;;;19.90;69.94;101507.02;1798516;78;21105;-84
2021/08/10 04:14:58;;;;;;;5.28;4.10;;;;;;;19.65;69.49;101512.33;1806821;79;21537;-85
2021/08/10 04:17:34;;;;;;;8.48;3.60;;;;;;;19.37;69.08;101518.10;1805865;79;21575;-86
2021/08/10 04:20:17;;;;;;;6.87;3.55;;;;;;;19.15;69.03;101516.75;1775375;79;21217;-82
2021/08/10 04:22:48;;;;;;;5.92;3.60;;;;;;;18.98;69.18;101511.38;1805598;79;21105;-83
2021/08/10 04:25:21;;;;;;;6.33;3.30;;;;;;;18.88;69.24;101512.23;1798886;78;21109;-86
2021/08/10 04:27:47;;;;;;;7.08;3.22;;;;;;;18.85;69.40;101513.57;1801473;79;21051;-83
2021/08/10 04:30:18;;;;;;;5.47;3.72;;;;;;;18.89;69.59;101514.02;1801845;79;21031;-84
2021/08/10 04:32:44;;;;;;;4.58;3.25;;;;;;;19.00;69.26;101515.39;1789198;79;22488;-83
2021/08/10 04:35:25;;;;;;;;;;;;;;;;;;;;;
2021/08/10 04:37:50;;;;;;;5.37;2.90;;;;;;;19.01;68.85;101499.81;1733930;80;21422;-85
2021/08/10 04:40:21;;;;;;;7.05;3.15;;;;;;;19.03;68.86;101504.29;1767156;80;21059;-83
2021/08/10 04:43:11;;;;;;;6.50;3.12;;;;;;;19.03;68.50;101500.70;1765505;80;21055;-82
2021/08/10 04:45:29;;;;;;;6.65;2.87;;;;;;;18.97;68.31;101505.59;1713208;80;21744;-83
2021/08/10 04:48:01;;;;;;;7.53;3.15;;;;;;;18.96;68.28;101498.94;1779114;80;21117;-83
2021/08/10 04:51:17;;;;;;;8.73;3.22;;;;;;;18.94;68.03;101500.69;1759160;80;21070;-87
2021/08/10 04:56:38;;;;;;;16.30;3.60;;;;;;;18.88;67.83;101500.67;1614066;86;21126;-78
2021/08/10 05:02:18;;;;;;;13.43;4.58;;;;;;;18.81;67.86;101507.34;1613605;86;21126;-79
2021/08/10 05:04:47;;;;;;;8.00;3.70;;;;;;;18.76;67.90;101520.17;1623137;86;21113;-79
2021/08/10 05:07:35;;;;;;;5.78;3.47;;;;;;;18.70;67.95;101515.70;1631657;86;21167;-78
2021/08/10 05:13:19;;;;;;;5.35;3.58;;;;;;;18.64;68.31;101509.03;1623090;86;21818;-77
2021/08/10 05:15:46;;;;;;;4.92;3.33;;;;;;;18.53;68.20;101510.77;1632831;86;21858;-81
2021/08/10 05:18:23;;;;;;;6.03;3.58;;;;;;;18.49;68.38;101508.94;1630663;86;21197;-78
2021/08/10 05:20:45;;;;;;;6.83;3.25;;;;;;;18.43;68.51;101501.80;1601115;88;21593;-78
2021/08/10 05:23:14;;;;;;;8.03;4.20;;;;;;;18.41;68.71;101506.24;1623779;88;21725;-78
2021/08/10 05:25:46;;;;;;;8.28;3.80;;;;;;;18.38;68.83;101500.47;1626626;88;21137;-78
2021/08/10 05:35:28;;;;;;;7.37;4.08;;;;;;;18.43;69.31;101496.47;1585499;88;21111;-78
2021/08/10 05:38:34;;;;;;;7.35;3.67;;;;;;;18.47;69.46;101495.63;1592947;87;21111;-80
2021/08/10 05:41:01;;;;;;;5.37;3.45;;;;;;;18.52;69.73;101496.97;1757465;79;21876;-79
2021/08/10 05:43:28;;;;;;;9.50;3.47;;;;;;;18.69;70.16;101490.36;1797590;79;21047;-78
2021/08/10 05:45:54;;;;;;;5.85;3.85;;;;;;;18.89;70.27;101487.34;1794082;79;21129;-78
2021/08/10 05:48:23;;;;;;;8.68;3.70;;;;;;;19.06;70.08;101489.17;1795118;79;21182;-79
2021/08/10 05:50:50;;;;;;;6.72;3.25;;;;;;;19.21;70.07;101491.86;1791917;79;21090;-79
2021/08/10 05:53:17;;;;;;;6.75;3.83;;;;;;;19.35;69.95;101501.20;1795297;79;21883;-78
2021/08/10 05:55:44;;;;;;;7.28;3.45;;;;;;;19.42;69.73;101514.55;1793348;79;21004;-78
2021/08/10 05:58:11;;;;;;;10.95;4.00;;;;;;;19.45;69.41;101512.80;1795347;79;21062;-78
2021/08/10 06:00:39;;;;;;;5.65;3.70;;;;;;;19.42;69.28;101495.86;1771991;79;21012;-79
2021/08/10 06:03:06;;;;;;;7.05;3.62;;;;;;;19.39;69.19;101490.54;1797460;79;21067;-79
2021/08/10 06:05:35;;;;;;;6.90;4.03;;;;;;;19.33;69.03;101488.30;1794557;79;21932;-79
2021/08/10 06:08:02;;;;;;;4.97;4.20;;;;;;;19.25;69.20;101490.08;1794720;79;21083;-79
2021/08/10 06:10:32;;;;;;;8.20;4.47;;;;;;;19.17;69.38;101484.73;1794401;78;21106;-79
2021/08/10 06:12:57;;;;;;;12.45;4.60;;;;;;;19.17;69.59;101476.28;1795858;79;21028;-78
2021/08/10 06:15:24;;;;;;;6.60;4.50;;;;;;;19.13;69.78;101473.63;1795057;79;21055;-78
2021/08/10 06:17:53;;;;;;;7.15;4.65;;;;;;;19.14;69.95;101474.05;1795270;79;21738;-78
2021/08/10 06:20:20;;;;;;;11.53;5.40;;;;;;;19.23;70.25;101483.40;1793049;79;21067;-79
2021/08/10 06:22:46;;;;;;;11.38;6.75;;;;;;;19.36;70.42;101490.52;1792637;80;21043;-78
2021/08/10 06:25:15;;;;;;;19.55;10.82;;;;;;;19.55;70.59;101490.08;1794393;79;21086;-78
2021/08/10 06:27:42;;;;;;;23.05;12.78;;;;;;;19.82;70.53;101482.99;1780582;79;21571;-79
2021/08/10 06:30:10;;;;;;;17.05;9.95;;;;;;;20.07;70.23;101484.27;1787008;79;21329;-78
2021/08/10 06:32:37;;;;;;;13.00;7.22;;;;;;;20.27;69.79;101480.19;1796165;79;21136;-78
2021/08/10 06:35:05;;;;;;;7.22;5.28;;;;;;;20.47;69.48;101483.67;1792440;80;21043;-78
2021/08/10 06:37:31;;;;;;;8.23;4.95;;;;;;;20.70;69.20;101477.36;1779231;79;21321;-78
2021/08/10 06:39:58;;;;;;;8.70;5.10;;;;;;;20.88;68.70;101489.30;1791484;79;21004;-78
2021/08/10 06:42:25;;;;;;;5.97;4.50;;;;;;;21.00;68.21;101480.30;1792800;79;21952;-79
2021/08/10 06:44:52;;;;;;;7.60;4.70;;;;;;;21.05;67.76;101474.93;1793224;79;21120;-78
2021/08/10 06:47:19;;;;;;;8.85;4.47;;;;;;;21.10;67.50;101475.80;1792935;79;21013;-79
2021/08/10 06:49:46;;;;;;;8.43;4.47;;;;;;;21.14;67.31;101473.07;1795985;79;21099;-79
2021/08/10 06:52:16;;;;;;;8.33;4.72;;;;;;;21.16;66.96;101471.73;1795258;79;21057;-79
2021/08/10 06:54:44;;;;;;;9.28;4.58;;;;;;;21.15;66.64;101473.95;1774447;79;22655;-79
2021/08/10 06:57:14;;;;;;;9.85;4.60;;;;;;;21.15;66.71;101468.59;1780228;79;37976;-79
2021/08/10 06:59:41;;;;;;;7.60;4.37;;;;;;;21.20;66.56;101473.94;1795227;79;21036;-79
2021/08/10 07:02:13;;;;;;;9.55;4.80;;;;;;;21.20;66.48;101469.46;1795152;79;21043;-79
2021/08/10 07:04:43;;;;;;;5.83;3.87;;;;;;;21.23;66.58;101468.11;1796609;79;20978;-79
2021/08/10 07:07:08;;;;;;;10.32;5.00;;;;;;;21.29;66.63;101464.50;1787421;79;21864;-78
2021/08/10 07:09:36;;;;;;;7.42;3.98;;;;;;;21.37;66.49;101469.33;1771861;79;21184;-79
2021/08/10 07:12:04;;;;;;;6.72;4.08;;;;;;;21.48;66.48;101468.81;1795273;79;21567;-79
2021/08/10 07:14:34;;;;;;;6.08;4.33;;;;;;;21.59;66.20;101462.03;1792086;79;21005;-79
2021/08/10 07:17:03;;;;;;;7.67;4.08;;;;;;;21.73;65.93;101459.20;1796268;79;21008;-79
2021/08/10 07:19:35;;;;;;;6.12;3.77;;;;;;;21.86;65.63;101461.31;1794302;79;21797;-79
2021/08/10 07:22:00;;;;;;;7.47;4.03;;;;;;;21.96;65.24;101464.35;1794663;79;21016;-79
2021/08/10 07:24:30;;;;;;;8.05;3.90;;;;;;;22.08;65.12;101464.66;1795458;79;21035;-79
2021/08/10 07:26:57;;;;;;;4.80;3.70;;;;;;;22.23;64.69;101464.94;1794971;79;21183;-79
2021/08/10 07:29:25;;;;;;;6.00;3.45;;;;;;;22.36;64.42;101453.64;1794114;79;21638;-79
2021/08/10 07:31:55;;;;;;;7.97;3.62;;;;;;;22.57;64.52;101460.05;1795164;79;22727;-79
2021/08/10 07:34:23;;;;;;;7.00;3.72;;;;;;;22.86;64.38;101457.41;1794659;79;21544;-79
2021/08/10 07:36:50;;;;;;;8.45;3.85;;;;;;;23.13;63.94;101460.17;1795433;79;21024;-78
2021/08/10 07:39:19;;;;;;;5.55;3.75;;;;;;;23.64;63.11;101466.03;1794988;79;20989;-79
2021/08/10 07:41:49;;;;;;;6.72;3.35;;;;;;;23.89;62.44;101459.77;1795423;79;21050;-78
2021/08/10 07:44:16;;;;;;;6.10;3.27;;;;;;;23.89;62.44;101459.77;1791415;79;21795;-78
2021/08/10 07:46:42;;;;;;;4.83;3.00;;;;;;;24.18;62.29;101463.24;1795016;79;21517;-78
2021/08/10 07:49:09;;;;;;;4.25;2.72;;;;;;;24.44;61.26;101457.79;1796245;79;21059;-79
2021/08/10 07:51:36;;;;;;;4.55;3.00;;;;;;;24.66;61.03;101460.03;1790724;79;21121;-78
2021/08/10 07:54:02;;;;;;;6.05;3.33;;;;;;;24.90;60.51;101462.16;1786229;79;21513;-78
2021/08/10 07:56:29;;;;;;;4.80;2.65;;;;;;;25.12;60.04;101451.77;1799962;79;22503;-79
2021/08/10 07:58:56;;;;;;;4.35;2.72;;;;;;;25.34;59.59;101455.30;1771551;79;21047;-79
2021/08/10 08:01:27;;;;;;;6.08;2.67;;;;;;;25.55;58.81;101460.15;1796036;79;21031;-79
2021/08/10 08:03:54;;;;;;;6.33;3.08;;;;;;;25.76;58.08;101451.06;1797187;79;21302;-80
2021/08/10 08:06:20;;;;;;;3.30;2.20;;;;;;;25.96;57.39;101446.52;1790499;79;21011;-79
2021/08/10 08:08:47;;;;;;;3.92;2.40;;;;;;;26.13;56.69;101442.86;1794700;79;21690;-79
2021/08/10 08:11:19;;;;;;;2.55;1.87;;;;;;;26.28;56.09;101438.84;1772703;79;21640;-79
2021/08/10 08:13:44;;;;;;;2.27;1.60;;;;;;;26.43;55.45;101450.08;1784410;79;21095;-79
2021/08/10 08:16:11;;;;;;;5.00;2.85;;;;;;;26.55;54.80;101444.33;1773663;80;21086;-79
2021/08/10 08:18:38;;;;;;;2.95;1.87;;;;;;;26.70;54.53;101443.00;1770338;79;21109;-79
2021/08/10 08:21:06;;;;;;;4.40;1.72;;;;;;;26.90;54.11;101441.03;1792578;79;21899;-79
2021/08/10 08:23:33;;;;;;;5.10;1.90;;;;;;;26.98;53.16;101439.43;1795355;79;21063;-79
2021/08/10 08:26:01;;;;;;;3.37;1.45;;;;;;;27.03;52.88;101434.73;1784999;79;21606;-79
2021/08/10 08:28:30;;;;;;;2.12;1.45;;;;;;;27.03;52.18;101437.44;1781741;79;21086;-79
2021/08/10 08:30:57;;;;;;;2.25;1.65;;;;;;;26.94;51.62;101436.81;1793337;79;20997;-79
2021/08/10 08:33:23;;;;;;;1.75;1.30;;;;;;;26.87;51.08;101433.89;1795182;79;21768;-79
2021/08/10 08:35:50;;;;;;;2.58;1.35;;;;;;;26.83;50.69;101442.16;1795446;79;21051;-79
2021/08/10 08:38:19;;;;;;;1.90;1.55;;;;;;;26.73;50.09;101441.09;1795435;79;21072;-79
2021/08/10 08:40:47;;;;;;;2.67;1.62;;;;;;;26.67;49.48;101439.03;1795249;79;21004;-79
2021/08/10 08:43:18;;;;;;;1.47;1.20;;;;;;;26.55;49.11;101431.70;1772482;79;21039;-79
2021/08/10 08:45:44;;;;;;;3.92;2.00;;;;;;;26.47;49.04;101433.77;1795608;79;21816;-79
2021/08/10 08:48:13;;;;;;;3.42;1.55;;;;;;;26.45;49.00;101432.05;1795151;79;21631;-79
2021/08/10 08:50:42;;;;;;;3.02;1.52;;;;;;;26.39;48.84;101433.13;1788739;79;21043;-79
2021/08/10 08:53:14;;;;;;;2.58;1.42;;;;;;;26.38;48.90;101432.69;1795293;79;21082;-80
2021/08/10 08:55:46;;;;;;;6.33;1.80;;;;;;;26.38;48.31;101433.56;1795634;79;21066;-78
2021/08/10 08:58:15;;;;;;;7.92;2.42;;;;;;;26.34;48.31;101434.59;1795334;79;22579;-78
2021/08/10 09:00:44;;;;;;;3.25;1.80;;;;;;;26.33;48.03;101438.69;1800946;79;21067;-78
2021/08/10 09:03:11;;;;;;;6.53;1.70;;;;;;;26.31;48.06;101432.45;1807757;79;21594;-78
2021/08/10 09:05:41;;;;;;;3.90;1.42;;;;;;;26.28;47.81;101432.56;1804014;79;21066;-78
2021/08/10 09:08:32;;;;;;;3.08;1.80;;;;;;;26.25;47.44;101428.12;1795518;78;21122;-79
2021/08/10 09:11:08;;;;;;;1.85;1.62;;;;;;;26.18;47.20;101438.23;1807212;79;21772;-78
2021/08/10 09:13:41;;;;;;;3.90;1.57;;;;;;;26.09;46.96;101441.19;1788113;79;21078;-78
2021/08/10 09:16:13;;;;;;;2.08;1.60;;;;;;;26.10;46.99;101437.55;1803440;78;21531;-78
2021/08/10 09:18:42;;;;;;;;;;;;;;;26.22;46.84;101436.30;1784712;80;21038;-78
2021/08/10 09:21:20;;;;;;;3.35;1.80;;;;;;;26.40;46.41;101438.92;1783936;78;20203;-78
2021/08/10 09:23:53;;;;;;;5.58;1.45;;;;;;;26.60;46.42;101432.96;1771120;80;21828;-79
2021/08/10 09:26:23;;;;;;;4.95;1.70;;;;;;;26.74;46.07;101434.73;1767667;80;21055;-79
2021/08/10 09:28:54;;;;;;;4.20;1.98;;;;;;;26.88;45.72;101437.02;1770083;80;21099;-80
2021/08/10 09:31:47;;;;;;;7.28;1.80;;;;;;;27.02;45.28;101435.69;1761440;80;21059;-79
2021/08/10 09:34:25;;;;;;;2.30;1.65;;;;;;;27.08;45.18;101436.83;1745430;80;21071;-79
2021/08/10 09:36:50;;;;;;;5.65;2.90;;;;;;;27.20;45.02;101432.38;1765848;80;21859;-79
2021/08/10 09:39:18;;;;;;;5.12;1.80;;;;;;;27.29;44.61;101432.10;1767002;81;21056;-78
2021/08/10 09:42:06;;;;;;;2.75;1.80;;;;;;;27.39;44.62;101429.96;1745969;81;21015;-78
2021/08/10 09:44:33;;;;;;;6.08;2.98;;;;;;;27.47;44.27;101423.81;1769518;80;21114;-78
2021/08/10 09:47:00;;;;;;;5.62;2.00;;;;;;;27.53;44.36;101433.53;1766516;81;21016;-81
2021/08/10 09:49:44;;;;;;;4.67;2.33;;;;;;;27.52;44.14;101431.78;1767039;81;22682;-81
2021/08/10 09:52:25;;;;;;;3.77;1.80;;;;;;;27.45;43.75;101426.16;1806659;78;21050;-79
2021/08/10 09:54:54;;;;;;;4.20;1.87;;;;;;;27.38;43.70;101420.07;1808683;79;21094;-78
2021/08/10 09:57:20;;;;;;;2.52;2.30;;;;;;;27.32;43.79;101418.46;1809050;79;21067;-80
2021/08/10 09:59:47;;;;;;;2.47;1.62;;;;;;;27.25;43.89;101410.58;1805545;78;21176;-81
2021/08/10 10:02:23;;;;;;;2.62;2.05;;;;;;;27.25;43.66;101405.18;1808020;79;21764;-79
2021/08/10 10:04:56;;;;;;;3.67;2.60;;;;;;;27.19;43.69;101405.40;1796198;79;21069;-79
2021/08/10 10:07:22;;;;;;;4.97;2.12;;;;;;;27.17;43.97;101400.04;1808423;79;21102;-79
2021/08/10 10:09:49;;;;;;;4.05;2.00;;;;;;;27.17;43.89;101400.04;1802866;79;21646;-78
2021/08/10 10:12:19;;;;;;;3.15;2.10;;;;;;;27.11;43.70;101399.78;1811355;79;20988;-79
2021/08/10 10:14:46;;;;;;;3.05;2.15;;;;;;;27.06;43.55;101399.05;1811481;79;22623;-79
2021/08/10 10:17:13;;;;;;;3.27;1.90;;;;;;;27.03;43.38;101396.91;1802574;79;21602;-81
2021/08/10 10:19:48;;;;;;;4.58;2.33;;;;;;;27.03;43.30;101388.36;1810088;79;21064;-79
2021/08/10 10:22:22;;;;;;;6.45;2.15;;;;;;;27.09;43.38;101388.63;1754404;79;21054;-79
2021/08/10 10:24:53;;;;;;;3.42;2.10;;;;;;;27.22;43.12;101388.61;1788279;79;21069;-80
2021/08/10 10:27:20;;;;;;;6.08;4.45;;;;;;;27.34;42.75;101380.09;1804712;78;21764;-80
2021/08/10 10:29:49;;;;;;;6.35;2.17;;;;;;;27.48;42.68;101383.68;1807148;79;21720;-80
2021/08/10 10:32:19;;;;;;;2.70;1.90;;;;;;;27.52;42.29;101389.39;1811647;79;21023;-80
2021/08/10 10:34:46;;;;;;;3.62;2.60;;;;;;;27.63;42.01;101379.55;1807365;78;21004;-79
2021/08/10 10:37:15;;;;;;;5.67;2.35;;;;;;;27.80;41.92;101376.67;1807834;79;21550;-79
2021/08/10 10:39:43;;;;;;;3.47;2.35;;;;;;;27.93;41.74;101373.98;1787575;79;21086;-79
2021/08/10 10:42:15;;;;;;;5.78;3.47;;;;;;;28.05;41.78;101371.27;1807650;78;21089;-80
2021/08/10 10:44:52;;;;;;;6.47;2.62;;;;;;;28.18;41.69;101368.50;1811484;79;21077;-79
2021/08/10 10:47:34;;;;;;;4.05;2.40;;;;;;;28.33;41.29;101367.02;1804627;79;21233;-79
2021/08/10 10:50:06;;;;;;;2.77;2.20;;;;;;;28.39;40.92;101368.12;1807194;79;21065;-79
2021/08/10 10:52:34;;;;;;;4.70;2.30;;;;;;;28.35;40.92;101366.48;1812013;78;21742;-79
2021/08/10 10:55:02;;;;;;;3.62;2.15;;;;;;;28.46;40.97;101363.36;1803707;79;21503;-79
2021/08/10 10:57:34;;;;;;;3.85;2.05;;;;;;;28.61;40.97;101360.05;1807624;79;21532;-79
2021/08/10 11:00:16;;;;;;;3.02;2.15;;;;;;;28.85;40.82;101361.31;1804807;78;21570;-79
2021/08/10 11:02:42;;;;;;;4.25;2.52;;;;;;;29.04;40.45;101353.33;1799088;78;21102;-79
2021/08/10 11:05:22;;;;;;;3.35;2.20;;;;;;;29.19;40.17;101351.81;1815387;78;21095;-79
2021/08/10 11:07:53;;;;;;;5.40;2.47;;;;;;;29.26;39.98;101351.93;1809905;78;20994;-79
2021/08/10 11:10:37;;;;;;;4.42;2.35;;;;;;;29.30;39.69;101352.68;1800400;78;21536;-79
2021/08/10 11:13:19;;;;;;;2.95;2.10;;;;;;;29.26;39.39;101354.64;1811619;79;21579;-78
2021/08/10 11:15:51;;;;;;;5.65;2.30;;;;;;;29.20;39.82;101353.08;1811881;79;21086;-79
2021/08/10 11:18:20;;;;;;;3.90;2.30;;;;;;;29.26;39.86;101347.41;1811554;79;22586;-79
2021/08/10 11:20:53;;;;;;;3.70;2.00;;;;;;;29.45;40.02;101341.14;1811519;79;21074;-80
2021/08/10 11:23:24;;;;;;;;;;;;;;;29.62;39.58;101337.22;1814413;79;21074;-84
2021/08/10 11:26:09;;;;;;;4.85;2.72;;;;;;;29.75;39.12;101329.44;1811926;79;20987;-83
2021/08/10 11:28:47;;;;;;;5.72;4.08;;;;;;;29.85;39.16;101323.09;1811820;79;21121;-84
2021/08/10 11:31:39;;;;;;;5.58;3.00;;;;;;;29.91;39.00;101324.64;1811750;79;21199;-85
2021/08/10 11:34:21;;;;;;;3.42;2.20;;;;;;;29.98;38.95;101316.62;1811901;79;21058;-84
2021/08/10 11:36:48;;;;;;;3.60;1.87;;;;;;;30.09;38.83;101321.06;1778070;78;21074;-84
2021/08/10 11:39:15;;;;;;;3.65;2.05;;;;;;;30.17;38.56;101321.56;1762891;78;21571;-84
2021/08/10 11:41:45;;;;;;;3.20;1.90;;;;;;;30.17;38.25;101314.78;1811285;78;21351;-84
2021/08/10 11:44:19;;;;;;;8.13;2.30;;;;;;;30.16;38.03;101312.13;1798831;79;21047;-84
2021/08/10 11:46:47;;;;;;;3.27;2.02;;;;;;;30.18;37.91;101314.29;1802549;79;21061;-84
2021/08/10 11:49:19;;;;;;;7.47;2.22;;;;;;;30.22;37.74;101311.86;1804448;78;21074;-83
2021/08/10 11:51:47;;;;;;;12.00;4.05;;;;;;;30.32;37.79;101304.14;1803071;79;21085;-83
2021/08/10 11:54:24;;;;;;;4.20;2.45;;;;;;;30.54;37.42;101310.30;1798434;79;21046;-84
2021/08/10 11:56:55;;;;;;;3.27;1.95;;;;;;;30.69;36.92;101303.22;1803058;78;21829;-83
2021/08/10 11:59:25;;;;;;;2.58;1.92;;;;;;;30.70;36.61;101301.37;1811264;79;21069;-84
2021/08/10 12:01:54;;;;;;;2.92;1.75;;;;;;;30.60;36.37;101303.19;1807703;79;21114;-84